Time;durP1;ratioP1;P1;durP2;ratioP2;P2;SDS_P1;SDS_P2;PMS_P1;PMS_P2;Temp;Humidity;BMP_temperature;BMP_pressure;BME280_temperature;BME280_humidity;BME280_pressure;Samples;Min_cycle;Max_cycle;Signal;HPM_P1;HPM_P2
2023/01/03 00:01:24;;;;;;;1999.90;999.90;;;;;;;;;;5025497;28;20076;-64
2023/01/03 00:03:52;;;;;;;1999.90;999.90;;;;;;;;;;5028011;28;20049;-67
2023/01/03 00:06:21;;;;;;;1999.90;999.90;;;;;;;;;;5029869;28;20085;-60
2023/01/03 00:08:48;;;;;;;1999.90;999.90;;;;;;;;;;5030828;28;20096;-64
2023/01/03 00:11:16;;;;;;;1999.90;999.90;;;;;;;;;;5029249;28;20776;-66
2023/01/03 00:13:44;;;;;;;1999.90;999.90;;;;;;;;;;5032322;28;20045;-66
2023/01/03 00:16:17;;;;;;;1999.90;999.90;;;;;;;;;;5032815;28;20511;-65
2023/01/03 00:18:44;;;;;;;1999.90;999.90;;;;;;;;;;5031294;28;20077;-66
2023/01/03 00:21:11;;;;;;;1999.90;999.90;;;;;;;;;;5029216;28;20566;-64
2023/01/03 00:23:37;;;;;;;1999.90;999.90;;;;;;;;;;5031024;28;20088;-64
2023/01/03 00:26:09;;;;;;;1999.90;999.90;;;;;;;;;;5034877;28;20596;-64
2023/01/03 00:28:35;;;;;;;1999.90;999.90;;;;;;;;;;5035533;28;20135;-65
2023/01/03 00:31:07;;;;;;;1999.90;999.90;;;;;;;;;;5035666;28;20066;-65
2023/01/03 00:33:33;;;;;;;1999.90;999.90;;;;;;;;;;5030940;28;20136;-66
2023/01/03 00:36:01;;;;;;;1999.90;999.90;;;;;;;;;;5035616;28;20077;-65
2023/01/03 00:38:28;;;;;;;1999.90;999.90;;;;;;;;;;5037063;28;20132;-66
2023/01/03 00:40:54;;;;;;;1999.90;999.90;;;;;;;;;;5037860;28;20057;-65
2023/01/03 00:43:29;;;;;;;1999.90;999.90;;;;;;;;;;5034616;28;20084;-63
2023/01/03 00:45:56;;;;;;;1999.90;999.90;;;;;;;;;;5034599;28;20152;-64
2023/01/03 00:48:24;;;;;;;1999.90;999.90;;;;;;;;;;5034390;28;20049;-63
2023/01/03 00:50:50;;;;;;;1999.90;999.90;;;;;;;;;;5034218;28;20125;-64
2023/01/03 00:53:17;;;;;;;1999.90;999.90;;;;;;;;;;5035131;28;20057;-65
2023/01/03 00:55:43;;;;;;;1999.90;999.90;;;;;;;;;;5033306;28;20049;-64
2023/01/03 00:58:10;;;;;;;1999.90;999.90;;;;;;;;;;5033523;28;20175;-61
2023/01/03 01:00:37;;;;;;;1999.90;999.90;;;;;;;;;;5031829;28;20473;-63
2023/01/03 01:03:03;;;;;;;1999.90;999.90;;;;;;;;;;5030577;28;20080;-60
2023/01/03 01:05:31;;;;;;;1999.90;999.90;;;;;;;;;;5029547;28;20129;-63
2023/01/03 01:07:58;;;;;;;1999.90;999.90;;;;;;;;;;5033325;28;20492;-61
2023/01/03 01:10:24;;;;;;;1999.90;999.90;;;;;;;;;;5027103;28;20151;-61
2023/01/03 01:12:54;;;;;;;1999.90;999.90;;;;;;;;;;5029315;28;20076;-60
2023/01/03 01:15:21;;;;;;;1999.90;999.90;;;;;;;;;;5033110;28;20146;-60
2023/01/03 01:17:48;;;;;;;1999.90;999.90;;;;;;;;;;5032307;28;20712;-60
2023/01/03 01:20:16;;;;;;;1999.90;999.90;;;;;;;;;;5031915;28;20532;-60
2023/01/03 01:22:44;;;;;;;1999.90;999.90;;;;;;;;;;5030877;28;20420;-60
2023/01/03 01:25:10;;;;;;;1999.90;999.90;;;;;;;;;;5033150;28;20136;-60
2023/01/03 01:27:37;;;;;;;1999.90;999.90;;;;;;;;;;5032192;28;20559;-60
2023/01/03 01:30:04;;;;;;;1999.90;999.90;;;;;;;;;;5031360;28;20136;-60
2023/01/03 01:32:30;;;;;;;1999.90;999.90;;;;;;;;;;5029350;28;20077;-61
2023/01/03 01:34:57;;;;;;;1999.90;999.90;;;;;;;;;;5026220;28;20076;-60
2023/01/03 01:37:23;;;;;;;1999.90;999.90;;;;;;;;;;5031002;28;20133;-60
2023/01/03 01:39:51;;;;;;;1999.90;999.90;;;;;;;;;;5029800;28;20132;-60
2023/01/03 01:45:04;;;;;;;1999.90;999.90;;;;;;;;;;5030912;28;20072;-61
2023/01/03 01:47:36;;;;;;;1999.90;999.90;;;;;;;;;;5030021;28;20076;-60
2023/01/03 01:50:15;;;;;;;1999.90;999.90;;;;;;;;;;5030480;28;20045;-60
2023/01/03 01:52:45;;;;;;;1999.90;999.90;;;;;;;;;;5027848;28;20124;-60
2023/01/03 01:55:15;;;;;;;1999.90;999.90;;;;;;;;;;5028582;28;20136;-60
2023/01/03 01:57:43;;;;;;;1999.90;999.90;;;;;;;;;;5029285;28;20532;-60
2023/01/03 02:00:11;;;;;;;1999.90;999.90;;;;;;;;;;5031171;28;20084;-60
2023/01/03 02:02:37;;;;;;;1999.90;999.90;;;;;;;;;;5029217;28;20096;-61
2023/01/03 02:05:06;;;;;;;1999.90;999.90;;;;;;;;;;5029521;28;20084;-60
2023/01/03 02:07:33;;;;;;;1999.90;999.90;;;;;;;;;;5028408;28;20041;-60
2023/01/03 02:10:00;;;;;;;1999.90;999.90;;;;;;;;;;5027871;28;20128;-60
2023/01/03 02:15:29;;;;;;;1999.90;999.90;;;;;;;;;;5030486;28;20073;-60
2023/01/03 02:18:02;;;;;;;1999.90;999.90;;;;;;;;;;5027573;28;20131;-60
2023/01/03 02:20:41;;;;;;;1999.90;999.90;;;;;;;;;;5031800;28;20069;-60
2023/01/03 02:23:21;;;;;;;1999.90;999.90;;;;;;;;;;5028379;28;20140;-60
2023/01/03 02:26:16;;;;;;;1999.90;999.90;;;;;;;;;;5027576;28;20137;-60
2023/01/03 02:29:00;;;;;;;1999.90;999.90;;;;;;;;;;5031282;28;20452;-60
2023/01/03 02:31:33;;;;;;;1999.90;999.90;;;;;;;;;;5029402;28;20459;-60
2023/01/03 02:34:03;;;;;;;1999.90;999.90;;;;;;;;;;5031818;28;20152;-60
2023/01/03 02:36:35;;;;;;;1999.90;999.90;;;;;;;;;;5029726;28;20165;-61
2023/01/03 02:39:08;;;;;;;1999.90;999.90;;;;;;;;;;5030448;28;20144;-60
2023/01/03 02:41:40;;;;;;;1999.90;999.90;;;;;;;;;;5030035;28;20128;-60
2023/01/03 02:44:13;;;;;;;1999.90;999.90;;;;;;;;;;5030230;28;20053;-60
2023/01/03 02:46:44;;;;;;;1999.90;999.90;;;;;;;;;;5029618;28;20144;-60
2023/01/03 02:49:15;;;;;;;1999.90;999.90;;;;;;;;;;5027710;28;20072;-60
2023/01/03 02:51:44;;;;;;;1999.90;999.90;;;;;;;;;;5030451;28;20141;-60
2023/01/03 02:54:13;;;;;;;1999.90;999.90;;;;;;;;;;5030593;28;20449;-60
2023/01/03 02:56:43;;;;;;;1999.90;999.90;;;;;;;;;;5029173;28;20149;-60
2023/01/03 02:59:14;;;;;;;1999.90;999.90;;;;;;;;;;5028657;28;20144;-60
2023/01/03 03:01:44;;;;;;;1999.90;999.90;;;;;;;;;;5029147;28;20152;-61
2023/01/03 03:04:11;;;;;;;1999.90;999.90;;;;;;;;;;5030105;28;20404;-60
2023/01/03 03:06:43;;;;;;;1999.90;999.90;;;;;;;;;;5030480;28;20471;-60
2023/01/03 03:09:09;;;;;;;1999.90;999.90;;;;;;;;;;5029508;28;20564;-60
2023/01/03 03:14:25;;;;;;;1999.90;999.90;;;;;;;;;;5029713;28;20084;-60
2023/01/03 03:16:58;;;;;;;1999.90;999.90;;;;;;;;;;5027620;28;20053;-60
2023/01/03 03:25:02;;;;;;;1999.90;999.90;;;;;;;;;;5029720;28;20138;-59
2023/01/03 03:33:41;;;;;;;1999.90;999.90;;;;;;;;;;5029558;28;20088;-59
2023/01/03 03:36:10;;;;;;;1999.90;999.90;;;;;;;;;;5026901;28;20589;-59
2023/01/03 03:38:39;;;;;;;1999.90;999.90;;;;;;;;;;5029510;28;20076;-61
2023/01/03 03:46:52;;;;;;;1999.90;999.90;;;;;;;;;;5027449;28;20064;-60
2023/01/03 03:49:39;;;;;;;1999.90;999.90;;;;;;;;;;5026050;28;20088;-61
2023/01/03 03:52:09;;;;;;;1999.90;999.90;;;;;;;;;;5029879;28;20049;-60
2023/01/03 03:54:38;;;;;;;1999.90;999.90;;;;;;;;;;5028937;28;20084;-60
2023/01/03 03:57:09;;;;;;;1999.90;999.90;;;;;;;;;;5030086;28;20053;-60
2023/01/03 03:59:36;;;;;;;1999.90;999.90;;;;;;;;;;5027112;28;20137;-60
2023/01/03 04:02:05;;;;;;;1999.90;999.90;;;;;;;;;;5026260;28;20136;-61
2023/01/03 04:04:36;;;;;;;1999.90;999.90;;;;;;;;;;5028761;28;20076;-60
2023/01/03 04:07:03;;;;;;;1999.90;999.90;;;;;;;;;;5029006;28;20191;-60
2023/01/03 04:09:30;;;;;;;1999.90;999.90;;;;;;;;;;5028254;28;20558;-60
2023/01/03 04:11:56;;;;;;;1999.90;999.90;;;;;;;;;;5030058;28;20091;-60
2023/01/03 04:14:23;;;;;;;1999.90;999.90;;;;;;;;;;5027952;28;20136;-61
2023/01/03 04:16:49;;;;;;;1999.90;999.90;;;;;;;;;;5027096;28;20060;-60
2023/01/03 04:19:16;;;;;;;1999.90;999.90;;;;;;;;;;5029895;28;20841;-60
2023/01/03 04:21:44;;;;;;;1999.90;999.90;;;;;;;;;;5027980;28;20084;-60
2023/01/03 04:24:10;;;;;;;1999.90;999.90;;;;;;;;;;5029641;28;20057;-61
2023/01/03 04:26:37;;;;;;;1999.90;999.90;;;;;;;;;;5028197;28;20136;-60
2023/01/03 04:29:03;;;;;;;1999.90;999.90;;;;;;;;;;5028362;28;20140;-59
2023/01/03 04:31:30;;;;;;;1999.90;999.90;;;;;;;;;;5028033;28;20574;-60
2023/01/03 04:33:56;;;;;;;1999.90;999.90;;;;;;;;;;5029770;28;20145;-59
2023/01/03 04:36:23;;;;;;;1999.90;999.90;;;;;;;;;;5028505;28;20057;-60
2023/01/03 04:38:50;;;;;;;1999.90;999.90;;;;;;;;;;5028448;28;20152;-60
2023/01/03 04:41:17;;;;;;;1999.90;999.90;;;;;;;;;;5027959;28;20076;-60
2023/01/03 04:44:01;;;;;;;1999.90;999.90;;;;;;;;;;5029854;28;20045;-60
2023/01/03 04:46:28;;;;;;;1999.90;999.90;;;;;;;;;;5026654;28;20058;-60
2023/01/03 04:48:55;;;;;;;1999.90;999.90;;;;;;;;;;5028527;28;20144;-60
2023/01/03 04:51:21;;;;;;;1999.90;999.90;;;;;;;;;;5027302;28;20073;-60
2023/01/03 04:53:48;;;;;;;1999.90;999.90;;;;;;;;;;5028744;28;20137;-60
2023/01/03 04:56:16;;;;;;;1999.90;999.90;;;;;;;;;;5027159;28;20092;-60
2023/01/03 04:58:42;;;;;;;1999.90;999.90;;;;;;;;;;5029291;28;20132;-61
2023/01/03 05:01:09;;;;;;;1999.90;999.90;;;;;;;;;;5024954;28;20049;-60
2023/01/03 05:03:36;;;;;;;1999.90;999.90;;;;;;;;;;5029478;28;20061;-61
2023/01/03 05:06:05;;;;;;;1999.90;999.90;;;;;;;;;;5028625;28;20081;-60
2023/01/03 05:08:31;;;;;;;1999.90;999.90;;;;;;;;;;5026366;28;20136;-60
2023/01/03 05:10:58;;;;;;;1999.90;999.90;;;;;;;;;;5031332;28;20132;-60
2023/01/03 05:13:25;;;;;;;1999.90;999.90;;;;;;;;;;5033211;28;20127;-60
2023/01/03 05:15:52;;;;;;;1999.90;999.90;;;;;;;;;;5029343;28;20056;-59
2023/01/03 05:18:18;;;;;;;1999.90;999.90;;;;;;;;;;5032025;28;20539;-60
2023/01/03 05:26:14;;;;;;;1999.90;999.90;;;;;;;;;;5032681;28;20068;-60
2023/01/03 05:28:44;;;;;;;1999.90;999.90;;;;;;;;;;5031532;28;20089;-60
2023/01/03 05:31:10;;;;;;;1999.90;999.90;;;;;;;;;;5028537;28;20132;-60
2023/01/03 05:33:37;;;;;;;1999.90;999.90;;;;;;;;;;5032840;28;20152;-60
2023/01/03 05:36:04;;;;;;;1999.90;999.90;;;;;;;;;;5031872;28;20151;-60
2023/01/03 05:38:31;;;;;;;1999.90;999.90;;;;;;;;;;5028634;28;20132;-60
2023/01/03 05:40:57;;;;;;;1999.90;999.90;;;;;;;;;;5032533;28;20480;-60
2023/01/03 05:43:24;;;;;;;1999.90;999.90;;;;;;;;;;5031517;28;20145;-60
2023/01/03 05:45:52;;;;;;;1999.90;999.90;;;;;;;;;;5028943;28;20104;-61
2023/01/03 05:48:20;;;;;;;1999.90;999.90;;;;;;;;;;5031259;28;20157;-59
2023/01/03 05:50:46;;;;;;;1999.90;999.90;;;;;;;;;;5032374;28;20128;-60
2023/01/03 05:53:13;;;;;;;1999.90;999.90;;;;;;;;;;5032712;28;20049;-60
2023/01/03 05:55:40;;;;;;;1999.90;999.90;;;;;;;;;;5029921;28;20132;-60
2023/01/03 05:58:07;;;;;;;1999.90;999.90;;;;;;;;;;5032409;28;20137;-60
2023/01/03 06:00:33;;;;;;;1999.90;999.90;;;;;;;;;;5028838;28;20144;-61
2023/01/03 06:03:01;;;;;;;1999.90;999.90;;;;;;;;;;5032323;28;20077;-61
2023/01/03 06:05:28;;;;;;;1999.90;999.90;;;;;;;;;;5028390;28;20133;-60
2023/01/03 06:07:54;;;;;;;1999.90;999.90;;;;;;;;;;5032078;28;20501;-60
2023/01/03 06:10:21;;;;;;;1999.90;999.90;;;;;;;;;;5031025;28;20107;-60
2023/01/03 06:12:47;;;;;;;1999.90;999.90;;;;;;;;;;5028968;28;20132;-60
2023/01/03 06:15:14;;;;;;;1999.90;999.90;;;;;;;;;;5029944;28;20548;-60
2023/01/03 06:17:56;;;;;;;1999.90;999.90;;;;;;;;;;5031359;28;20077;-61
2023/01/03 06:20:25;;;;;;;1999.90;999.90;;;;;;;;;;5030036;28;20041;-60
2023/01/03 06:22:52;;;;;;;1999.90;999.90;;;;;;;;;;5031437;28;20073;-61
2023/01/03 06:25:19;;;;;;;1999.90;999.90;;;;;;;;;;5028025;28;20055;-59
2023/01/03 06:27:45;;;;;;;1999.90;999.90;;;;;;;;;;5031962;28;20533;-60
2023/01/03 06:30:14;;;;;;;1999.90;999.90;;;;;;;;;;5028560;28;20081;-59
2023/01/03 06:32:41;;;;;;;1999.90;999.90;;;;;;;;;;5031582;28;20041;-60
2023/01/03 06:35:08;;;;;;;1999.90;999.90;;;;;;;;;;5031780;28;20145;-60
2023/01/03 06:37:36;;;;;;;1999.90;999.90;;;;;;;;;;5031255;28;20128;-60
2023/01/03 06:40:02;;;;;;;1999.90;999.90;;;;;;;;;;5030771;28;20085;-60
2023/01/03 06:42:42;;;;;;;1999.90;999.90;;;;;;;;;;5030527;28;20215;-60
2023/01/03 06:53:28;;;;;;;1999.90;999.90;;;;;;;;;;5029685;28;20083;-60
2023/01/03 06:55:54;;;;;;;1999.90;999.90;;;;;;;;;;5030355;28;20061;-60
2023/01/03 06:58:21;;;;;;;1999.90;999.90;;;;;;;;;;5031342;28;20132;-60
2023/01/03 07:00:47;;;;;;;1999.90;999.90;;;;;;;;;;5029457;28;20041;-60
2023/01/03 07:03:14;;;;;;;1999.90;999.90;;;;;;;;;;5030527;28;20803;-60
2023/01/03 07:05:40;;;;;;;1999.90;999.90;;;;;;;;;;5029634;28;20155;-61
2023/01/03 07:08:07;;;;;;;1999.90;999.90;;;;;;;;;;5030819;28;20140;-60
2023/01/03 07:10:35;;;;;;;1999.90;999.90;;;;;;;;;;5031321;28;20081;-60
2023/01/03 07:15:46;;;;;;;1999.90;999.90;;;;;;;;;;5028711;28;20128;-60
2023/01/03 07:18:12;;;;;;;1999.90;999.90;;;;;;;;;;5030693;28;20149;-60
2023/01/03 07:20:42;;;;;;;1999.90;999.90;;;;;;;;;;5026534;28;20144;-60
2023/01/03 07:23:09;;;;;;;1999.90;999.90;;;;;;;;;;5027322;28;20115;-60
2023/01/03 07:25:40;;;;;;;1999.90;999.90;;;;;;;;;;5028058;28;20128;-60
2023/01/03 07:28:07;;;;;;;1999.90;999.90;;;;;;;;;;5023027;28;20060;-60
2023/01/03 07:30:38;;;;;;;1999.90;999.90;;;;;;;;;;5029404;28;20099;-60
2023/01/03 07:33:04;;;;;;;1999.90;999.90;;;;;;;;;;5029715;28;20137;-60
2023/01/03 07:35:31;;;;;;;1999.90;999.90;;;;;;;;;;5029523;28;20924;-60
2023/01/03 07:37:58;;;;;;;1999.90;999.90;;;;;;;;;;5024455;28;20132;-60
2023/01/03 07:40:24;;;;;;;1999.90;999.90;;;;;;;;;;5027124;28;20137;-60
2023/01/03 07:45:40;;;;;;;1999.90;999.90;;;;;;;;;;5026247;28;20199;-61
2023/01/03 07:48:06;;;;;;;1999.90;999.90;;;;;;;;;;5024780;28;20083;-60
2023/01/03 07:50:33;;;;;;;1999.90;999.90;;;;;;;;;;5030321;28;20134;-60
2023/01/03 07:52:59;;;;;;;1999.90;999.90;;;;;;;;;;5030106;28;20496;-60
2023/01/03 07:55:27;;;;;;;1999.90;999.90;;;;;;;;;;5030333;28;20076;-60
2023/01/03 07:57:55;;;;;;;1999.90;999.90;;;;;;;;;;5024343;28;20049;-60
2023/01/03 08:00:22;;;;;;;1999.90;999.90;;;;;;;;;;5027652;28;20136;-60
2023/01/03 08:02:48;;;;;;;1999.90;999.90;;;;;;;;;;5026459;28;20467;-60
2023/01/03 08:05:15;;;;;;;1999.90;999.90;;;;;;;;;;5028987;28;20907;-60
2023/01/03 08:07:41;;;;;;;1999.90;999.90;;;;;;;;;;5023973;28;20137;-59
2023/01/03 08:15:38;;;;;;;1999.90;999.90;;;;;;;;;;5020774;28;20118;-60
2023/01/03 08:18:04;;;;;;;1999.90;999.90;;;;;;;;;;5029644;28;20132;-60
2023/01/03 08:20:31;;;;;;;1999.90;999.90;;;;;;;;;;5028422;28;20065;-60
2023/01/03 08:22:59;;;;;;;1999.90;999.90;;;;;;;;;;5023046;28;20556;-60
2023/01/03 08:25:25;;;;;;;1999.90;999.90;;;;;;;;;;5025517;28;20100;-60
2023/01/03 08:27:52;;;;;;;1999.90;999.90;;;;;;;;;;5027623;28;20128;-60
2023/01/03 08:30:19;;;;;;;1999.90;999.90;;;;;;;;;;5026911;28;20073;-60
2023/01/03 08:32:47;;;;;;;1999.90;999.90;;;;;;;;;;5027578;28;20148;-60
2023/01/03 08:35:14;;;;;;;1999.90;999.90;;;;;;;;;;5029485;28;20136;-60
2023/01/03 08:37:41;;;;;;;1999.90;999.90;;;;;;;;;;5029328;28;20064;-60
2023/01/03 08:40:11;;;;;;;1999.90;999.90;;;;;;;;;;5029993;28;20140;-61
2023/01/03 08:42:37;;;;;;;1999.90;999.90;;;;;;;;;;5029604;28;20128;-60
2023/01/03 08:45:07;;;;;;;1999.90;999.90;;;;;;;;;;5033042;28;20550;-60
2023/01/03 08:47:34;;;;;;;1999.90;999.90;;;;;;;;;;5053609;28;20461;-60
2023/01/03 08:50:03;;;;;;;1999.90;999.90;;;;;;;;;;5053136;28;20064;-60
2023/01/03 08:52:29;;;;;;;1999.90;999.90;;;;;;;;;;5053425;28;20083;-60
2023/01/03 08:54:56;;;;;;;1999.90;999.90;;;;;;;;;;5053627;28;20049;-60
2023/01/03 08:57:22;;;;;;;1999.90;999.90;;;;;;;;;;5053573;28;20137;-61
2023/01/03 08:59:49;;;;;;;1999.90;999.90;;;;;;;;;;5053158;28;20128;-60
2023/01/03 09:02:15;;;;;;;1999.90;999.90;;;;;;;;;;5052660;28;20408;-60
2023/01/03 09:04:42;;;;;;;1999.90;999.90;;;;;;;;;;5053071;28;20092;-59
2023/01/03 09:07:10;;;;;;;1999.90;999.90;;;;;;;;;;5050981;28;20133;-60
2023/01/03 09:09:36;;;;;;;1999.90;999.90;;;;;;;;;;5052919;28;20053;-60
2023/01/03 09:12:03;;;;;;;1999.90;999.90;;;;;;;;;;5051499;28;20144;-61
2023/01/03 09:14:29;;;;;;;1999.90;999.90;;;;;;;;;;5052764;28;20136;-60
2023/01/03 09:16:56;;;;;;;1999.90;999.90;;;;;;;;;;5051407;28;20132;-60
2023/01/03 09:19:22;;;;;;;1999.90;999.90;;;;;;;;;;5053125;28;20076;-60
2023/01/03 09:21:49;;;;;;;1999.90;999.90;;;;;;;;;;5053196;28;20132;-60
2023/01/03 09:24:17;;;;;;;1999.90;999.90;;;;;;;;;;5052639;28;20083;-61
2023/01/03 09:26:43;;;;;;;1999.90;999.90;;;;;;;;;;5051382;28;20470;-60
2023/01/03 09:29:10;;;;;;;1999.90;999.90;;;;;;;;;;5053007;28;20080;-60
2023/01/03 09:31:36;;;;;;;1999.90;999.90;;;;;;;;;;5052730;28;20136;-60
2023/01/03 09:34:04;;;;;;;1999.90;999.90;;;;;;;;;;5050943;28;20483;-60
2023/01/03 09:36:30;;;;;;;1999.90;999.90;;;;;;;;;;5051693;28;20484;-60
2023/01/03 09:38:57;;;;;;;1999.90;999.90;;;;;;;;;;5052448;28;20099;-60
2023/01/03 09:41:26;;;;;;;1999.90;999.90;;;;;;;;;;5046725;28;20132;-60
2023/01/03 09:43:58;;;;;;;1999.90;999.90;;;;;;;;;;5051891;28;20059;-60
2023/01/03 09:46:26;;;;;;;1999.90;999.90;;;;;;;;;;5039522;28;20140;-60
2023/01/03 09:48:54;;;;;;;1999.90;999.90;;;;;;;;;;5032536;28;20060;-60
2023/01/03 10:05:36;;;;;;;1999.90;999.90;;;;;;;;;;5032009;28;20064;-60
2023/01/03 10:08:15;;;;;;;1999.90;999.90;;;;;;;;;;5030398;28;20483;-60
2023/01/03 10:10:47;;;;;;;1999.90;999.90;;;;;;;;;;5030249;28;20140;-60
2023/01/03 10:13:22;;;;;;;1999.90;999.90;;;;;;;;;;5030344;28;20053;-60
2023/01/03 10:15:55;;;;;;;1999.90;999.90;;;;;;;;;;5029967;28;20046;-60
2023/01/03 10:18:35;;;;;;;1999.90;999.90;;;;;;;;;;5028368;28;20128;-60
2023/01/03 10:21:06;;;;;;;1999.90;999.90;;;;;;;;;;5032259;28;20140;-62
2023/01/03 10:23:34;;;;;;;1999.90;999.90;;;;;;;;;;5033329;28;20073;-61
2023/01/03 10:26:00;;;;;;;1999.90;999.90;;;;;;;;;;5032600;28;20128;-63
2023/01/03 10:28:36;;;;;;;1999.90;999.90;;;;;;;;;;5032517;28;20132;-62
2023/01/03 10:31:10;;;;;;;1999.90;999.90;;;;;;;;;;5028360;28;20072;-61
2023/01/03 10:33:39;;;;;;;1999.90;999.90;;;;;;;;;;5025157;28;20053;-64
2023/01/03 10:36:06;;;;;;;1999.90;999.90;;;;;;;;;;5030535;28;20141;-63
2023/01/03 10:38:33;;;;;;;1999.90;999.90;;;;;;;;;;5030700;28;20045;-64
2023/01/03 10:41:00;;;;;;;1999.90;999.90;;;;;;;;;;5033122;23;20579;-52
2023/01/03 10:43:30;;;;;;;1999.90;999.90;;;;;;;;;;5036699;23;20073;-56
2023/01/03 10:45:59;;;;;;;1999.90;999.90;;;;;;;;;;5036861;28;20060;-59
2023/01/03 10:48:26;;;;;;;1999.90;999.90;;;;;;;;;;5035328;28;20145;-59
2023/01/03 10:50:53;;;;;;;1999.90;999.90;;;;;;;;;;5033367;28;20120;-56
2023/01/03 10:53:22;;;;;;;1999.90;999.90;;;;;;;;;;5035398;28;20046;-56
2023/01/03 10:55:50;;;;;;;1999.90;999.90;;;;;;;;;;5034323;28;20069;-57
2023/01/03 10:58:21;;;;;;;1999.90;999.90;;;;;;;;;;5032066;28;20063;-55
2023/01/03 11:00:49;;;;;;;1999.90;999.90;;;;;;;;;;5033949;28;20049;-58
2023/01/03 11:03:17;;;;;;;1999.90;999.90;;;;;;;;;;5037753;28;20173;-58
2023/01/03 11:05:45;;;;;;;1999.90;999.90;;;;;;;;;;5033851;28;20065;-58
2023/01/03 11:08:16;;;;;;;1999.90;999.90;;;;;;;;;;5036102;28;20049;-58
2023/01/03 11:10:52;;;;;;;1999.90;999.90;;;;;;;;;;5035061;28;20084;-56
2023/01/03 11:13:25;;;;;;;;;;;;;;;;;;5032326;28;20543;-56
2023/01/03 11:15:56;;;;;;;1999.90;999.90;;;;;;;;;;5032297;28;20288;-58
2023/01/03 11:18:25;;;;;;;1999.90;999.90;;;;;;;;;;5033780;28;20164;-58
2023/01/03 11:20:56;;;;;;;1999.90;999.90;;;;;;;;;;5034768;28;20136;-58
2023/01/03 11:23:28;;;;;;;1999.90;999.90;;;;;;;;;;5034517;28;20531;-56
2023/01/03 11:26:02;;;;;;;1999.90;999.90;;;;;;;;;;5036843;28;20081;-58
2023/01/03 11:28:48;;;;;;;1999.90;999.90;;;;;;;;;;5033889;28;20481;-57
2023/01/03 11:31:32;;;;;;;1999.90;999.90;;;;;;;;;;5034469;28;20057;-57
2023/01/03 11:34:06;;;;;;;1999.90;999.90;;;;;;;;;;5034142;28;20403;-58
2023/01/03 11:36:40;;;;;;;1999.90;999.90;;;;;;;;;;5034579;28;20634;-58
2023/01/03 11:39:19;;;;;;;1999.90;999.90;;;;;;;;;;5038626;28;20044;-58
2023/01/03 11:41:57;;;;;;;1999.90;999.90;;;;;;;;;;5036137;28;20546;-58
2023/01/03 11:44:39;;;;;;;1999.90;999.90;;;;;;;;;;5036367;28;20152;-58
2023/01/03 11:47:18;;;;;;;1999.90;999.90;;;;;;;;;;5035306;28;20136;-58
2023/01/03 11:49:52;;;;;;;1999.90;999.90;;;;;;;;;;5035717;28;20567;-58
2023/01/03 11:52:28;;;;;;;1999.90;999.90;;;;;;;;;;5034476;28;20559;-56
2023/01/03 11:55:14;;;;;;;1999.90;999.90;;;;;;;;;;5031530;28;20064;-57
2023/01/03 11:57:43;;;;;;;;;;;;;;;;;;5033930;28;20567;-58
2023/01/03 12:00:15;;;;;;;1999.90;999.90;;;;;;;;;;5038236;28;19964;-57
2023/01/03 12:02:56;;;;;;;1999.90;999.90;;;;;;;;;;5036648;28;20463;-58
2023/01/03 12:05:37;;;;;;;1999.90;999.90;;;;;;;;;;5034337;28;20132;-58
2023/01/03 12:08:15;;;;;;;1999.90;999.90;;;;;;;;;;5032499;28;20128;-55
2023/01/03 12:10:45;;;;;;;1999.90;999.90;;;;;;;;;;5035758;28;20049;-58
2023/01/03 12:13:19;;;;;;;1999.90;999.90;;;;;;;;;;5036233;28;20136;-58
2023/01/03 12:15:49;;;;;;;1999.90;999.90;;;;;;;;;;5036359;28;20948;-58
2023/01/03 12:18:22;;;;;;;1999.90;999.90;;;;;;;;;;5030845;28;20411;-58
2023/01/03 12:20:54;;;;;;;1999.90;999.90;;;;;;;;;;5033829;28;20136;-57
2023/01/03 12:23:30;;;;;;;1999.90;999.90;;;;;;;;;;5036035;28;20037;-58
2023/01/03 12:25:59;;;;;;;1999.90;999.90;;;;;;;;;;5044801;28;20128;-58
2023/01/03 12:28:30;;;;;;;1999.90;999.90;;;;;;;;;;5038959;28;20469;-57
2023/01/03 12:30:58;;;;;;;1999.90;999.90;;;;;;;;;;5041309;28;20140;-58
2023/01/03 12:33:30;;;;;;;1999.90;999.90;;;;;;;;;;5035156;28;20136;-58
2023/01/03 12:36:01;;;;;;;1999.90;999.90;;;;;;;;;;5036788;28;20126;-54
2023/01/03 12:38:31;;;;;;;1999.90;999.90;;;;;;;;;;5041711;28;20486;-56
2023/01/03 12:41:01;;;;;;;1999.90;999.90;;;;;;;;;;5039958;28;20144;-58
2023/01/03 12:43:32;;;;;;;1999.90;999.90;;;;;;;;;;5038047;28;20137;-57
2023/01/03 12:46:04;;;;;;;1999.90;999.90;;;;;;;;;;5041551;28;20049;-58
2023/01/03 12:48:42;;;;;;;1999.90;999.90;;;;;;;;;;5036761;28;20471;-57
2023/01/03 12:51:09;;;;;;;1999.90;999.90;;;;;;;;;;5030440;28;20115;-58
2023/01/03 12:53:40;;;;;;;1999.90;999.90;;;;;;;;;;5036514;28;20133;-55
2023/01/03 12:56:23;;;;;;;1999.90;999.90;;;;;;;;;;5039475;28;20144;-58
2023/01/03 12:59:01;;;;;;;1999.90;999.90;;;;;;;;;;5032370;28;20559;-58
2023/01/03 13:01:34;;;;;;;1999.90;999.90;;;;;;;;;;5034812;28;20152;-57
2023/01/03 13:04:08;;;;;;;1999.90;999.90;;;;;;;;;;5037676;28;20128;-57
2023/01/03 13:06:38;;;;;;;1999.90;999.90;;;;;;;;;;5033019;28;20129;-57
2023/01/03 13:09:08;;;;;;;1999.90;999.90;;;;;;;;;;5034708;28;20057;-54
2023/01/03 13:11:40;;;;;;;1999.90;999.90;;;;;;;;;;5034220;28;20049;-56
2023/01/03 13:14:19;;;;;;;1999.90;999.90;;;;;;;;;;5034455;28;20049;-58
2023/01/03 13:16:47;;;;;;;1999.90;999.90;;;;;;;;;;5031872;28;20072;-57
2023/01/03 13:19:48;;;;;;;1999.90;999.90;;;;;;;;;;5032461;28;20045;-55
2023/01/03 13:22:33;;;;;;;1999.90;999.90;;;;;;;;;;5033001;28;20088;-57
2023/01/03 13:25:28;;;;;;;1999.90;999.90;;;;;;;;;;5035856;28;20414;-57
2023/01/03 13:27:57;;;;;;;1999.90;999.90;;;;;;;;;;5037553;28;20552;-57
2023/01/03 13:30:31;;;;;;;1999.90;999.90;;;;;;;;;;5033315;28;20132;-57
2023/01/03 13:33:12;;;;;;;1999.90;999.90;;;;;;;;;;5037678;28;20483;-57
2023/01/03 13:35:53;;;;;;;1999.90;999.90;;;;;;;;;;5035580;28;20165;-57
2023/01/03 13:38:26;;;;;;;1999.90;999.90;;;;;;;;;;5035106;28;20157;-57
2023/01/03 13:40:55;;;;;;;1999.90;999.90;;;;;;;;;;5034057;28;20463;-60
2023/01/03 13:43:23;;;;;;;1999.90;999.90;;;;;;;;;;5033718;28;20148;-59
2023/01/03 13:45:53;;;;;;;1999.90;999.90;;;;;;;;;;5034930;28;20144;-59
2023/01/03 13:48:23;;;;;;;1999.90;999.90;;;;;;;;;;5034961;28;20048;-58
2023/01/03 13:51:22;;;;;;;1999.90;999.90;;;;;;;;;;5037795;28;20148;-56
2023/01/03 13:53:59;;;;;;;1999.90;999.90;;;;;;;;;;5034069;28;20551;-59
2023/01/03 13:56:27;;;;;;;1999.90;999.90;;;;;;;;;;5032551;28;20057;-59
2023/01/03 13:58:59;;;;;;;1999.90;999.90;;;;;;;;;;5033307;28;20080;-59
2023/01/03 14:01:37;;;;;;;1999.90;999.90;;;;;;;;;;5033901;28;20056;-59
2023/01/03 14:04:22;;;;;;;1999.90;999.90;;;;;;;;;;5039208;28;20045;-59
2023/01/03 14:07:01;;;;;;;1999.90;999.90;;;;;;;;;;5037944;28;20080;-60
2023/01/03 14:09:42;;;;;;;1999.90;999.90;;;;;;;;;;5039338;28;20132;-59
2023/01/03 14:12:28;;;;;;;1999.90;999.90;;;;;;;;;;5036435;28;20049;-57
2023/01/03 14:14:56;;;;;;;1999.90;999.90;;;;;;;;;;5036768;28;20557;-59
2023/01/03 14:17:25;;;;;;;1999.90;999.90;;;;;;;;;;5035845;28;20136;-59
2023/01/03 14:19:54;;;;;;;1999.90;999.90;;;;;;;;;;5035929;28;20111;-59
2023/01/03 14:22:22;;;;;;;1999.90;999.90;;;;;;;;;;5035807;28;20131;-59
2023/01/03 14:24:53;;;;;;;1999.90;999.90;;;;;;;;;;5036081;28;20151;-56
2023/01/03 14:27:23;;;;;;;1999.90;999.90;;;;;;;;;;5035628;28;20091;-57
2023/01/03 14:29:51;;;;;;;1999.90;999.90;;;;;;;;;;5037322;28;20128;-56
2023/01/03 14:32:20;;;;;;;1999.90;999.90;;;;;;;;;;5034058;28;20041;-57
2023/01/03 14:34:47;;;;;;;1999.90;999.90;;;;;;;;;;5037128;28;20478;-57
2023/01/03 14:37:15;;;;;;;1999.90;999.90;;;;;;;;;;5038689;28;20155;-57
2023/01/03 14:39:53;;;;;;;1999.90;999.90;;;;;;;;;;5039619;28;20148;-57
2023/01/03 14:42:19;;;;;;;1999.90;999.90;;;;;;;;;;5032638;28;20464;-57
2023/01/03 14:44:49;;;;;;;1999.90;999.90;;;;;;;;;;5034431;28;20085;-55
2023/01/03 14:47:17;;;;;;;1999.90;999.90;;;;;;;;;;5043173;28;20140;-57
2023/01/03 14:49:46;;;;;;;1999.90;999.90;;;;;;;;;;5038652;28;20736;-54
2023/01/03 14:52:17;;;;;;;1999.90;999.90;;;;;;;;;;5037192;28;20048;-59
2023/01/03 14:54:45;;;;;;;1999.90;999.90;;;;;;;;;;5036616;28;20483;-58
2023/01/03 14:57:18;;;;;;;1999.90;999.90;;;;;;;;;;5036683;28;20049;-59
2023/01/03 14:59:45;;;;;;;1999.90;999.90;;;;;;;;;;5036473;28;20092;-57
2023/01/03 15:02:12;;;;;;;1999.90;999.90;;;;;;;;;;5036746;28;20140;-59